Time;durP1;ratioP1;P1;durP2;ratioP2;P2;SDS_P1;SDS_P2;PMS_P1;PMS_P2;Temp;Humidity;BMP_temperature;BMP_pressure;BME280_temperature;BME280_humidity;BME280_pressure;Samples;Min_cycle;Max_cycle;Signal;HPM_P1;HPM_P2
2023/10/20 10:09:53;;;;;;;;;11.75;9.75;;;;;;;;5107614;27;13416;-72
2023/10/20 10:12:20;;;;;;;;;17.00;12.25;;;;;;;;5108595;28;9652;-70
2023/10/20 10:15:01;;;;;;;;;15.33;11.67;;;;;;;;5107663;28;9600;-70
2023/10/20 10:17:27;;;;;;;;;13.50;13.50;;;;;;;;5106696;28;9427;-72
2023/10/20 10:19:53;;;;;;;;;12.00;12.00;;;;;;;;5107988;28;9402;-72
2023/10/20 10:22:26;;;;;;;;;19.25;13.00;;;;;;;;5108381;28;8818;-72
2023/10/20 10:24:54;;;;;;;;;13.00;10.00;;;;;;;;5108179;28;9411;-72
2023/10/20 10:27:19;;;;;;;;;13.67;12.00;;;;;;;;5108037;28;9382;-72
2023/10/20 10:29:45;;;;;;;;;14.33;13.67;;;;;;;;5108341;28;9275;-71
2023/10/20 10:32:12;;;;;;;;;14.67;12.00;;;;;;;;5109006;28;8822;-74
2023/10/20 10:34:44;;;;;;;;;12.33;9.67;;;;;;;;5108274;28;9310;-75
2023/10/20 10:37:09;;;;;;;;;14.67;12.00;;;;;;;;5107542;28;9170;-72
2023/10/20 10:39:34;;;;;;;;;19.33;16.00;;;;;;;;5108978;28;9241;-72
2023/10/20 10:42:03;;;;;;;;;12.67;11.67;;;;;;;;5109346;28;8792;-73
2023/10/20 10:44:34;;;;;;;;;11.67;11.33;;;;;;;;5105230;28;8810;-72
2023/10/20 10:46:59;;;;;;;;;11.00;9.33;;;;;;;;5106487;28;9149;-72
2023/10/20 10:49:24;;;;;;;;;13.67;11.67;;;;;;;;5107297;28;9146;-77
2023/10/20 10:51:52;;;;;;;;;15.00;10.33;;;;;;;;5107033;28;8792;-76
2023/10/20 10:54:18;;;;;;;;;16.33;12.00;;;;;;;;5105016;28;8784;-80
2023/10/20 10:56:43;;;;;;;;;12.00;9.33;;;;;;;;5106652;28;8943;-77
2023/10/20 10:59:11;;;;;;;;;11.67;8.67;;;;;;;;5107234;28;8971;-82
2023/10/20 11:01:40;;;;;;;;;11.33;8.00;;;;;;;;5106945;28;8812;-78
2023/10/20 11:04:10;;;;;;;;;18.33;12.33;;;;;;;;5106812;28;9663;-77
2023/10/20 11:06:37;;;;;;;;;16.67;13.00;;;;;;;;5107232;28;9031;-77
2023/10/20 11:09:05;;;;;;;;;12.00;9.00;;;;;;;;5107134;28;9159;-77
2023/10/20 11:11:31;;;;;;;;;14.33;9.33;;;;;;;;5107268;28;9262;-83
2023/10/20 11:13:57;;;;;;;;;13.67;12.33;;;;;;;;5105343;28;9037;-73
2023/10/20 11:16:22;;;;;;;;;7.33;5.67;;;;;;;;5106563;27;9072;-72
2023/10/20 11:18:48;;;;;;;;;12.33;7.67;;;;;;;;5116490;27;8793;-73
2023/10/20 11:21:13;;;;;;;;;10.00;8.00;;;;;;;;5100959;28;8800;-72
2023/10/20 11:23:38;;;;;;;;;8.00;7.33;;;;;;;;5096297;28;8805;-73
2023/10/20 11:26:14;;;;;;;;;20.00;10.33;;;;;;;;5097397;28;8788;-72
2023/10/20 11:28:40;;;;;;;;;8.50;8.50;;;;;;;;5097052;28;8840;-72
2023/10/20 11:31:06;;;;;;;;;8.00;7.00;;;;;;;;5090925;28;8804;-77
2023/10/20 11:33:31;;;;;;;;;9.00;8.00;;;;;;;;5092818;28;8784;-76
2023/10/20 11:36:00;;;;;;;;;14.33;9.33;;;;;;;;5085190;28;8905;-78
2023/10/20 11:38:26;;;;;;;;;10.67;8.33;;;;;;;;5090128;28;8768;-80
2023/10/20 11:40:52;;;;;;;;;13.00;7.00;;;;;;;;5092130;28;8948;-80
2023/10/20 11:43:17;;;;;;;;;10.00;7.67;;;;;;;;5092872;28;8875;-79
2023/10/20 11:45:42;;;;;;;;;12.33;9.00;;;;;;;;5093389;28;8784;-78
2023/10/20 11:48:08;;;;;;;;;10.67;7.67;;;;;;;;5090506;28;8824;-79
2023/10/20 11:50:34;;;;;;;;;13.75;9.00;;;;;;;;5091632;28;8776;-80
2023/10/20 11:52:59;;;;;;;;;7.00;6.67;;;;;;;;5090540;28;8834;-79
2023/10/20 11:55:25;;;;;;;;;16.33;9.00;;;;;;;;5092002;28;8760;-79
2023/10/20 11:57:50;;;;;;;;;9.00;6.00;;;;;;;;5091958;28;9535;-80
2023/10/20 12:00:17;;;;;;;;;9.00;8.33;;;;;;;;5091751;28;8819;-79
2023/10/20 12:02:43;;;;;;;;;9.50;7.50;;;;;;;;5092539;28;8792;-73
2023/10/20 12:05:11;;;;;;;;;12.33;9.33;;;;;;;;5092546;28;8768;-71
2023/10/20 12:07:36;;;;;;;;;5.67;4.00;;;;;;;;5091947;28;8957;-73
2023/10/20 12:10:05;;;;;;;;;4.00;4.00;;;;;;;;5092396;28;8879;-71
2023/10/20 12:12:31;;;;;;;;;12.25;8.50;;;;;;;;5092375;28;8792;-73
2023/10/20 12:14:56;;;;;;;;;10.00;9.00;;;;;;;;5092194;28;8795;-75
2023/10/20 12:17:22;;;;;;;;;6.67;0.67;;;;;;;;5092248;28;8822;-74
2023/10/20 12:19:48;;;;;;;;;11.25;8.50;;;;;;;;5091430;28;8800;-73
2023/10/20 12:22:13;;;;;;;;;14.00;13.00;;;;;;;;5091408;28;8914;-73
2023/10/20 12:24:39;;;;;;;;;11.00;9.33;;;;;;;;5091584;28;8768;-73
2023/10/20 12:27:05;;;;;;;;;17.00;11.67;;;;;;;;5090679;28;8819;-76
2023/10/20 12:29:30;;;;;;;;;14.00;10.50;;;;;;;;5091514;28;8832;-78
2023/10/20 12:31:59;;;;;;;;;13.00;11.00;;;;;;;;5091148;28;8802;-80
2023/10/20 12:34:24;;;;;;;;;18.33;10.33;;;;;;;;5087098;28;8812;-80
2023/10/20 12:36:50;;;;;;;;;11.67;9.67;;;;;;;;5094515;28;8918;-80
2023/10/20 12:39:18;;;;;;;;;10.67;7.67;;;;;;;;5091552;28;9885;-80
2023/10/20 12:41:44;;;;;;;;;14.25;10.25;;;;;;;;5091356;28;8826;-76
2023/10/20 12:44:10;;;;;;;;;9.33;7.67;;;;;;;;5090955;28;8792;-78
2023/10/20 12:46:36;;;;;;;;;13.75;7.25;;;;;;;;5090731;28;8788;-79
2023/10/20 12:49:01;;;;;;;;;11.33;7.67;;;;;;;;5089348;28;8839;-81
2023/10/20 12:51:26;;;;;;;;;21.67;13.67;;;;;;;;5089285;28;8936;-79
2023/10/20 12:53:51;;;;;;;;;17.67;10.33;;;;;;;;5089919;28;8819;-80
2023/10/20 12:56:17;;;;;;;;;12.67;9.67;;;;;;;;5091230;28;8799;-79
2023/10/20 12:58:42;;;;;;;;;9.67;7.00;;;;;;;;5090147;28;8842;-81
2023/10/20 13:01:07;;;;;;;;;11.00;8.00;;;;;;;;5091625;28;8823;-80
2023/10/20 13:03:33;;;;;;;;;10.67;6.33;;;;;;;;5091636;28;8780;-69
2023/10/20 13:05:58;;;;;;;;;10.33;9.33;;;;;;;;5092610;28;9493;-78
2023/10/20 13:08:24;;;;;;;;;1.33;0.33;;;;;;;;5089763;28;9546;-75
2023/10/20 13:10:49;;;;;;;;;13.00;7.00;;;;;;;;5091458;28;8780;-76
2023/10/20 13:13:15;;;;;;;;;8.67;7.33;;;;;;;;5091029;28;9564;-75
2023/10/20 13:15:40;;;;;;;;;3.33;3.33;;;;;;;;5091333;28;8902;-77
2023/10/20 13:18:06;;;;;;;;;7.00;4.67;;;;;;;;5090731;28;11036;-86
2023/10/20 13:20:31;;;;;;;;;11.00;5.33;;;;;;;;5090485;28;8838;-86
2023/10/20 13:22:56;;;;;;;;;8.67;5.67;;;;;;;;5090259;28;8804;-86
2023/10/20 13:25:22;;;;;;;;;8.33;4.67;;;;;;;;5090383;28;8799;-83
2023/10/20 13:27:48;;;;;;;;;8.75;7.25;;;;;;;;5090581;28;9075;-85
2023/10/20 13:30:13;;;;;;;;;7.00;3.67;;;;;;;;5090181;28;8796;-86
2023/10/20 13:32:39;;;;;;;;;12.67;7.33;;;;;;;;5089718;28;8804;-85
2023/10/20 13:35:04;;;;;;;;;7.67;5.00;;;;;;;;5088604;28;8795;-86
2023/10/20 13:37:30;;;;;;;;;13.67;8.00;;;;;;;;5090188;28;8796;-86
2023/10/20 13:39:55;;;;;;;;;10.33;5.00;;;;;;;;5090347;28;8811;-87
2023/10/20 13:42:21;;;;;;;;;10.67;8.00;;;;;;;;5090018;28;8792;-86
2023/10/20 13:44:46;;;;;;;;;10.67;7.33;;;;;;;;5090097;28;8783;-87
2023/10/20 13:47:11;;;;;;;;;10.67;7.67;;;;;;;;5090070;28;9533;-87
2023/10/20 13:49:37;;;;;;;;;10.67;4.67;;;;;;;;5090341;28;8820;-77
2023/10/20 13:52:03;;;;;;;;;8.00;4.67;;;;;;;;5090500;28;8798;-71
2023/10/20 13:54:28;;;;;;;;;7.50;3.25;;;;;;;;5090787;28;8807;-80
2023/10/20 13:56:53;;;;;;;;;10.33;5.00;;;;;;;;5091200;28;8784;-81
2023/10/20 13:59:20;;;;;;;;;7.00;4.33;;;;;;;;5091931;28;8792;-85
2023/10/20 14:01:45;;;;;;;;;9.33;9.00;;;;;;;;5089332;28;9564;-74
2023/10/20 14:04:10;;;;;;;;;9.67;4.00;;;;;;;;5090461;28;8884;-85
2023/10/20 14:06:35;;;;;;;;;4.33;3.00;;;;;;;;5088847;28;8850;-81
2023/10/20 14:09:01;;;;;;;;;10.33;5.67;;;;;;;;5090380;28;9473;-86
2023/10/20 14:11:26;;;;;;;;;8.67;6.67;;;;;;;;5090422;28;8869;-88
2023/10/20 14:13:51;;;;;;;;;12.00;6.67;;;;;;;;5090179;28;8904;-88
2023/10/20 14:16:17;;;;;;;;;5.33;4.00;;;;;;;;5089204;28;8808;-81
2023/10/20 14:18:42;;;;;;;;;8.67;7.00;;;;;;;;5090213;28;8795;-81
2023/10/20 14:21:08;;;;;;;;;11.33;5.67;;;;;;;;5090213;28;8798;-80
2023/10/20 14:23:35;;;;;;;;;2.00;1.33;;;;;;;;5088986;28;8800;-82
2023/10/20 14:26:00;;;;;;;;;4.25;3.00;;;;;;;;5089051;28;11577;-83
2023/10/20 14:28:32;;;;;;;;;7.33;4.33;;;;;;;;5088731;28;8950;-77
2023/10/20 14:30:58;;;;;;;;;7.33;7.00;;;;;;;;5090521;28;8784;-77
2023/10/20 14:33:24;;;;;;;;;7.75;4.00;;;;;;;;5090189;28;8900;-74
2023/10/20 14:35:49;;;;;;;;;1.67;1.33;;;;;;;;5084330;28;8909;-82
2023/10/20 14:38:15;;;;;;;;;4.67;3.00;;;;;;;;5069416;28;8971;-78
2023/10/20 14:40:40;;;;;;;;;2.00;1.00;;;;;;;;5069790;28;9533;-79
2023/10/20 14:43:05;;;;;;;;;7.33;4.00;;;;;;;;5068252;28;8795;-82
2023/10/20 14:45:31;;;;;;;;;4.00;4.00;;;;;;;;5068912;28;8838;-78
2023/10/20 14:47:56;;;;;;;;;1.33;0.00;;;;;;;;5085961;28;8839;-74
2023/10/20 14:50:22;;;;;;;;;7.00;6.00;;;;;;;;5068725;28;8814;-80
2023/10/20 14:52:51;;;;;;;;;3.25;3.25;;;;;;;;5083905;28;8805;-84
2023/10/20 14:55:16;;;;;;;;;3.00;3.00;;;;;;;;5110665;28;8843;-83
2023/10/20 14:57:41;;;;;;;;;4.67;1.33;;;;;;;;5094887;28;9588;-82
2023/10/20 15:00:09;;;;;;;;;4.67;2.33;;;;;;;;5073222;28;8991;-81
2023/10/20 15:02:34;;;;;;;;;7.50;3.75;;;;;;;;5079046;28;8826;-82
2023/10/20 15:04:59;;;;;;;;;2.33;0.67;;;;;;;;5093357;28;8804;-87
2023/10/20 15:07:25;;;;;;;;;28.25;21.25;;;;;;;;5094410;28;8830;-84
2023/10/20 15:09:50;;;;;;;;;2.00;1.00;;;;;;;;5093432;28;8819;-85
2023/10/20 15:12:15;;;;;;;;;9.33;6.00;;;;;;;;5092689;28;8804;-81
2023/10/20 15:14:42;;;;;;;;;1.00;1.00;;;;;;;;5093552;28;8783;-80
2023/10/20 15:17:07;;;;;;;;;6.33;6.33;;;;;;;;5093298;28;8799;-81
2023/10/20 15:19:33;;;;;;;;;2.00;2.00;;;;;;;;5093859;28;9029;-78
2023/10/20 15:21:58;;;;;;;;;2.00;1.00;;;;;;;;5093114;28;8792;-77
2023/10/20 15:24:23;;;;;;;;;3.00;2.00;;;;;;;;5093361;28;8962;-81
2023/10/20 15:26:50;;;;;;;;;3.33;1.00;;;;;;;;5093077;28;9661;-82
2023/10/20 15:29:15;;;;;;;;;2.00;2.00;;;;;;;;5093091;28;8846;-78
2023/10/20 15:31:40;;;;;;;;;2.00;1.00;;;;;;;;5093084;28;8788;-80
2023/10/20 15:34:06;;;;;;;;;1.00;1.00;;;;;;;;5092316;28;8840;-79
2023/10/20 15:36:43;;;;;;;;;2.33;1.67;;;;;;;;5093813;28;8780;-82
2023/10/20 15:39:10;;;;;;;;;0.00;0.00;;;;;;;;5093162;28;9569;-81
2023/10/20 15:41:35;;;;;;;;;3.00;2.00;;;;;;;;5092709;28;8771;-77
2023/10/20 15:44:00;;;;;;;;;2.67;1.00;;;;;;;;5091900;28;8897;-79
2023/10/20 15:46:25;;;;;;;;;3.67;1.00;;;;;;;;5093009;28;8830;-81
2023/10/20 15:48:51;;;;;;;;;1.00;1.00;;;;;;;;5091857;28;8795;-84
2023/10/20 15:51:16;;;;;;;;;1.67;1.67;;;;;;;;5092022;28;8822;-76
2023/10/20 15:53:45;;;;;;;;;3.00;2.00;;;;;;;;5090248;28;9551;-77
2023/10/20 15:56:12;;;;;;;;;2.25;0.00;;;;;;;;5088973;28;9548;-79
2023/10/20 15:58:37;;;;;;;;;1.25;1.00;;;;;;;;5090924;28;8830;-79
2023/10/20 16:01:04;;;;;;;;;2.00;2.00;;;;;;;;5092344;28;8801;-79
2023/10/20 16:03:29;;;;;;;;;2.50;0.00;;;;;;;;5090092;28;8807;-77
2023/10/20 16:05:55;;;;;;;;;4.00;2.00;;;;;;;;5092051;28;9642;-78
2023/10/20 16:08:20;;;;;;;;;2.00;0.33;;;;;;;;5091964;28;8839;-78
2023/10/20 16:10:45;;;;;;;;;0.33;0.00;;;;;;;;5090943;28;8840;-78
2023/10/20 16:13:10;;;;;;;;;1.33;0.67;;;;;;;;5091220;28;9620;-78
2023/10/20 16:15:36;;;;;;;;;3.00;2.00;;;;;;;;5091921;28;8830;-78
2023/10/20 16:18:01;;;;;;;;;8.00;6.75;;;;;;;;5091627;28;8836;-78
2023/10/20 16:20:26;;;;;;;;;2.33;0.67;;;;;;;;5090622;28;9682;-81
2023/10/20 16:22:51;;;;;;;;;0.67;0.67;;;;;;;;5091188;28;8821;-75
2023/10/20 16:25:17;;;;;;;;;0.67;0.67;;;;;;;;5090464;28;8820;-80
2023/10/20 16:27:42;;;;;;;;;0.00;0.00;;;;;;;;5090221;28;8817;-77
2023/10/20 16:30:08;;;;;;;;;1.00;0.00;;;;;;;;5090151;28;9543;-80
2023/10/20 16:32:36;;;;;;;;;0.00;0.00;;;;;;;;5091188;28;8810;-80
2023/10/20 16:35:01;;;;;;;;;0.00;0.00;;;;;;;;5091792;28;8894;-81
2023/10/20 16:37:28;;;;;;;;;2.00;0.00;;;;;;;;5090700;28;8811;-76
2023/10/20 16:39:53;;;;;;;;;0.00;0.00;;;;;;;;5082938;28;8816;-79
2023/10/20 16:42:19;;;;;;;;;0.33;0.00;;;;;;;;5090694;28;9171;-80
2023/10/20 16:44:44;;;;;;;;;2.00;2.00;;;;;;;;5091355;28;8807;-79
2023/10/20 16:47:09;;;;;;;;;1.00;1.00;;;;;;;;5083136;28;8819;-79
2023/10/20 16:49:35;;;;;;;;;1.67;0.00;;;;;;;;5089938;28;8866;-78
2023/10/20 16:52:00;;;;;;;;;0.00;0.00;;;;;;;;5090335;28;8839;-80
2023/10/20 16:54:26;;;;;;;;;0.00;0.00;;;;;;;;5091371;28;8915;-81
2023/10/20 16:56:51;;;;;;;;;0.00;0.00;;;;;;;;5089960;28;8832;-82
2023/10/20 16:59:17;;;;;;;;;3.00;2.00;;;;;;;;5089582;28;9304;-75
2023/10/20 17:01:42;;;;;;;;;0.67;0.00;;;;;;;;5091153;28;8854;-74
2023/10/20 17:04:07;;;;;;;;;0.00;0.00;;;;;;;;5095158;28;8817;-73
2023/10/20 17:06:33;;;;;;;;;0.00;0.00;;;;;;;;5110689;28;8797;-74
2023/10/20 17:08:58;;;;;;;;;1.00;0.00;;;;;;;;5082235;28;8851;-74
2023/10/20 17:11:24;;;;;;;;;2.00;0.00;;;;;;;;5090932;28;8805;-75
2023/10/20 17:13:49;;;;;;;;;3.00;2.00;;;;;;;;5090034;28;8877;-76
2023/10/20 17:16:14;;;;;;;;;1.67;0.67;;;;;;;;5091087;28;8815;-74
2023/10/20 17:18:40;;;;;;;;;3.00;2.00;;;;;;;;5090244;28;8814;-74
2023/10/20 17:21:09;;;;;;;;;6.00;3.25;;;;;;;;5090541;28;8819;-74
2023/10/20 17:23:37;;;;;;;;;2.50;1.75;;;;;;;;5084179;28;8808;-75
2023/10/20 17:26:03;;;;;;;;;7.50;5.00;;;;;;;;5090598;28;9436;-74
2023/10/20 17:28:30;;;;;;;;;2.50;2.00;;;;;;;;5088676;28;9588;-75
2023/10/20 17:30:59;;;;;;;;;1.00;0.00;;;;;;;;5090607;28;9324;-74
2023/10/20 17:33:28;;;;;;;;;0.50;0.00;;;;;;;;5094569;28;9464;-73
2023/10/20 17:35:53;;;;;;;;;1.00;0.00;;;;;;;;5092411;28;9396;-73
2023/10/20 17:38:19;;;;;;;;;1.00;0.67;;;;;;;;5108965;28;9222;-75
2023/10/20 17:40:45;;;;;;;;;0.33;0.00;;;;;;;;5110203;28;8897;-72
2023/10/20 17:43:10;;;;;;;;;1.25;1.25;;;;;;;;5108150;28;8816;-74
2023/10/20 17:45:39;;;;;;;;;24.00;20.50;;;;;;;;5101540;28;8907;-74
2023/10/20 17:48:05;;;;;;;;;1.00;1.00;;;;;;;;5089765;28;8828;-74
2023/10/20 17:50:39;;;;;;;;;1.00;1.00;;;;;;;;5109691;28;9484;-73
2023/10/20 17:53:05;;;;;;;;;0.25;0.25;;;;;;;;5106973;28;8793;-71
2023/10/20 17:55:30;;;;;;;;;2.00;2.00;;;;;;;;5109165;28;9352;-73
2023/10/20 17:57:55;;;;;;;;;12.00;9.00;;;;;;;;5109867;28;8861;-72
2023/10/20 18:00:20;;;;;;;;;0.50;0.00;;;;;;;;5103105;28;8811;-75
2023/10/20 18:02:47;;;;;;;;;5.75;2.75;;;;;;;;5105040;28;8786;-77
2023/10/20 18:05:13;;;;;;;;;0.25;0.00;;;;;;;;5093033;28;8821;-75
2023/10/20 18:07:40;;;;;;;;;0.00;0.00;;;;;;;;5092367;28;9664;-75
2023/10/20 18:10:05;;;;;;;;;0.00;0.00;;;;;;;;5099783;28;8844;-74
2023/10/20 18:12:30;;;;;;;;;1.00;1.00;;;;;;;;5096803;28;9471;-74
2023/10/20 18:14:59;;;;;;;;;0.00;0.00;;;;;;;;5104586;28;9600;-74
2023/10/20 18:17:24;;;;;;;;;0.00;0.00;;;;;;;;5109551;28;8821;-74
2023/10/20 18:19:49;;;;;;;;;0.00;0.00;;;;;;;;5109707;28;9642;-75
2023/10/20 18:22:15;;;;;;;;;0.25;0.00;;;;;;;;5107801;28;8814;-74
2023/10/20 18:24:41;;;;;;;;;0.00;0.00;;;;;;;;5109069;28;8809;-74
2023/10/20 18:27:06;;;;;;;;;1.00;0.00;;;;;;;;5109757;28;9357;-74
2023/10/20 18:29:31;;;;;;;;;5.50;5.00;;;;;;;;5110382;28;9543;-74
2023/10/20 18:31:56;;;;;;;;;0.00;0.00;;;;;;;;5109412;28;8825;-81
2023/10/20 18:34:22;;;;;;;;;0.00;0.00;;;;;;;;5092787;28;9562;-78
2023/10/20 18:36:47;;;;;;;;;0.00;0.00;;;;;;;;5093783;28;8792;-75
2023/10/20 18:39:16;;;;;;;;;1.00;1.00;;;;;;;;5093388;28;8798;-82
2023/10/20 18:41:44;;;;;;;;;0.00;0.00;;;;;;;;5094022;28;8914;-78
2023/10/20 18:44:10;;;;;;;;;1.00;1.00;;;;;;;;5092842;28;9332;-73
2023/10/20 18:46:35;;;;;;;;;4.50;2.75;;;;;;;;5092378;28;9688;-74
2023/10/20 18:49:00;;;;;;;;;0.00;0.00;;;;;;;;5092289;28;8854;-73
2023/10/20 18:51:25;;;;;;;;;1.00;1.00;;;;;;;;5089601;28;8803;-75
2023/10/20 18:53:51;;;;;;;;;3.00;3.00;;;;;;;;5092486;28;8835;-74
2023/10/20 18:56:17;;;;;;;;;2.00;1.25;;;;;;;;5092086;28;8895;-75
2023/10/20 18:58:42;;;;;;;;;1.00;1.00;;;;;;;;5093276;28;10252;-75
2023/10/20 19:01:07;;;;;;;;;1.00;1.00;;;;;;;;5113011;28;8797;-71
2023/10/20 19:03:33;;;;;;;;;5.25;3.75;;;;;;;;5104994;27;8792;-71
2023/10/20 19:05:59;;;;;;;;;3.00;1.75;;;;;;;;5093050;28;8800;-73
2023/10/20 19:08:24;;;;;;;;;4.00;4.00;;;;;;;;5094162;28;9964;-73
2023/10/20 19:10:50;;;;;;;;;4.50;2.25;;;;;;;;5093166;28;8805;-78
2023/10/20 19:13:15;;;;;;;;;87.33;79.33;;;;;;;;5091166;28;9561;-77
2023/10/20 19:15:41;;;;;;;;;0.00;0.00;;;;;;;;5093269;28;8812;-74
2023/10/20 19:18:06;;;;;;;;;2.00;0.75;;;;;;;;5092920;28;8810;-75
2023/10/20 19:20:32;;;;;;;;;3.00;3.00;;;;;;;;5092814;28;10301;-76
2023/10/20 19:22:57;;;;;;;;;2.25;2.25;;;;;;;;5082750;28;8949;-77
2023/10/20 19:25:22;;;;;;;;;2.50;2.50;;;;;;;;5091326;28;8884;-76
2023/10/20 19:27:48;;;;;;;;;2.75;2.00;;;;;;;;5091366;28;8828;-74
2023/10/20 19:30:13;;;;;;;;;1.00;1.00;;;;;;;;5092768;28;8900;-72
2023/10/20 19:32:38;;;;;;;;;8.50;7.75;;;;;;;;5091971;28;8820;-72
2023/10/20 19:35:05;;;;;;;;;5.00;5.00;;;;;;;;5092589;28;8807;-72
2023/10/20 19:37:30;;;;;;;;;4.00;4.00;;;;;;;;5084575;28;9558;-72
2023/10/20 19:39:58;;;;;;;;;4.00;4.00;;;;;;;;5092208;28;9722;-73
2023/10/20 19:42:24;;;;;;;;;4.25;4.00;;;;;;;;5091403;28;8803;-72
2023/10/20 19:44:49;;;;;;;;;3.75;2.75;;;;;;;;5091342;28;10242;-72
2023/10/20 19:47:15;;;;;;;;;7.50;5.25;;;;;;;;5092000;28;11666;-73
2023/10/20 19:49:40;;;;;;;;;5.75;5.75;;;;;;;;5091912;28;8835;-73
2023/10/20 19:52:05;;;;;;;;;2.50;2.25;;;;;;;;5090252;28;8798;-69
2023/10/20 19:54:31;;;;;;;;;3.50;2.50;;;;;;;;5092173;28;8808;-72
2023/10/20 19:56:56;;;;;;;;;2.00;2.00;;;;;;;;5092183;28;8788;-72
2023/10/20 19:59:21;;;;;;;;;2.00;2.00;;;;;;;;5092175;28;8823;-72
2023/10/20 20:01:47;;;;;;;;;8.00;8.00;;;;;;;;5092505;28;8796;-75
2023/10/20 20:04:12;;;;;;;;;3.00;2.00;;;;;;;;5091282;28;8808;-74
2023/10/20 20:06:38;;;;;;;;;8.00;8.00;;;;;;;;5092247;28;8776;-73
2023/10/20 20:09:03;;;;;;;;;2.00;0.00;;;;;;;;5090386;28;9641;-74
2023/10/20 20:11:28;;;;;;;;;3.00;2.00;;;;;;;;5091895;28;9550;-74
2023/10/20 20:13:54;;;;;;;;;2.25;2.00;;;;;;;;5091264;28;8820;-74
2023/10/20 20:16:22;;;;;;;;;3.25;3.25;;;;;;;;5092264;28;8822;-74
2023/10/20 20:18:47;;;;;;;;;6.25;5.00;;;;;;;;5092442;28;8896;-72
2023/10/20 20:21:12;;;;;;;;;4.00;2.75;;;;;;;;5092356;28;9632;-74
2023/10/20 20:23:38;;;;;;;;;5.00;3.00;;;;;;;;5092253;28;8776;-73
2023/10/20 20:26:03;;;;;;;;;3.00;2.00;;;;;;;;5092491;28;8787;-73
2023/10/20 20:28:28;;;;;;;;;2.00;1.25;;;;;;;;5092579;28;8858;-74
2023/10/20 20:30:54;;;;;;;;;4.00;2.00;;;;;;;;5092380;28;8784;-73
2023/10/20 20:33:19;;;;;;;;;3.00;3.00;;;;;;;;5091099;28;8823;-74
2023/10/20 20:35:44;;;;;;;;;2.00;2.00;;;;;;;;5092147;28;8779;-74
2023/10/20 20:38:10;;;;;;;;;1.25;1.00;;;;;;;;5092030;28;8804;-72
2023/10/20 20:40:38;;;;;;;;;0.50;0.00;;;;;;;;5092200;28;9372;-71
2023/10/20 20:43:04;;;;;;;;;1.00;1.00;;;;;;;;5091616;28;8846;-71
2023/10/20 20:45:31;;;;;;;;;1.25;1.25;;;;;;;;5092135;28;9490;-71
2023/10/20 20:47:57;;;;;;;;;2.50;0.75;;;;;;;;5091999;28;8791;-71
2023/10/20 20:50:22;;;;;;;;;1.00;1.00;;;;;;;;5091837;28;9477;-72
2023/10/20 20:52:48;;;;;;;;;1.00;1.00;;;;;;;;5091066;28;9634;-71
2023/10/20 20:55:13;;;;;;;;;4.25;3.00;;;;;;;;5091698;28;8815;-73
2023/10/20 20:57:38;;;;;;;;;2.50;2.50;;;;;;;;5090496;28;8828;-71
2023/10/20 21:00:04;;;;;;;;;3.00;3.00;;;;;;;;5091544;28;8819;-71
2023/10/20 21:02:29;;;;;;;;;2.00;2.00;;;;;;;;5090251;28;8822;-72
2023/10/20 21:04:54;;;;;;;;;2.00;0.00;;;;;;;;5092052;28;8822;-72
2023/10/20 21:07:20;;;;;;;;;4.00;1.50;;;;;;;;5091522;28;8764;-72
2023/10/20 21:09:45;;;;;;;;;0.00;0.00;;;;;;;;5091310;28;8982;-70
2023/10/20 21:12:10;;;;;;;;;1.00;0.00;;;;;;;;5021371;27;12336;-71
2023/10/20 21:14:36;;;;;;;;;1.50;1.50;;;;;;;;5046646;28;8810;-71
2023/10/20 21:17:02;;;;;;;;;2.25;2.25;;;;;;;;5045894;28;8928;-71
2023/10/20 21:19:27;;;;;;;;;2.75;0.25;;;;;;;;5046591;28;8873;-71
2023/10/20 21:21:52;;;;;;;;;1.00;0.00;;;;;;;;5045528;28;8896;-71
2023/10/20 21:24:21;;;;;;;;;0.50;0.50;;;;;;;;5046515;28;8965;-71
2023/10/20 21:26:47;;;;;;;;;2.00;0.25;;;;;;;;5028916;28;9591;-71
2023/10/20 21:29:12;;;;;;;;;1.00;0.00;;;;;;;;5047233;28;9841;-71
2023/10/20 21:31:37;;;;;;;;;0.50;0.50;;;;;;;;5048923;28;8798;-72
2023/10/20 21:34:03;;;;;;;;;0.50;0.00;;;;;;;;5047976;28;8884;-72
2023/10/20 21:36:28;;;;;;;;;1.00;1.00;;;;;;;;5048595;28;8836;-72
2023/10/20 21:38:53;;;;;;;;;1.50;0.50;;;;;;;;5031218;28;8833;-72
2023/10/20 21:41:19;;;;;;;;;0.25;0.25;;;;;;;;5032010;28;8807;-73
2023/10/20 21:43:44;;;;;;;;;0.00;0.00;;;;;;;;5041225;28;8804;-73
2023/10/20 21:46:09;;;;;;;;;0.75;0.00;;;;;;;;5029697;28;8812;-73
2023/10/20 21:48:35;;;;;;;;;1.00;1.00;;;;;;;;5030932;28;8824;-73
2023/10/20 21:51:03;;;;;;;;;1.00;0.00;;;;;;;;5030728;28;8780;-73
2023/10/20 21:53:29;;;;;;;;;1.25;1.00;;;;;;;;5031176;28;8772;-72
2023/10/20 21:56:01;;;;;;;;;0.00;0.00;;;;;;;;5029547;28;10671;-72
2023/10/20 21:58:27;;;;;;;;;0.00;0.00;;;;;;;;5030865;28;8799;-72
2023/10/20 22:00:54;;;;;;;;;0.00;0.00;;;;;;;;5030836;28;9434;-72
2023/10/20 22:03:19;;;;;;;;;3.00;0.00;;;;;;;;5030647;28;8783;-72
2023/10/20 22:05:45;;;;;;;;;1.00;0.00;;;;;;;;5030510;28;9653;-72
2023/10/20 22:08:10;;;;;;;;;0.00;0.00;;;;;;;;5030704;28;8909;-71
2023/10/20 22:10:35;;;;;;;;;1.00;0.00;;;;;;;;5029417;28;8846;-71
2023/10/20 22:13:00;;;;;;;;;0.00;0.00;;;;;;;;5030741;28;8788;-72
2023/10/20 22:15:26;;;;;;;;;0.00;0.00;;;;;;;;5029383;28;8877;-71
2023/10/20 22:17:51;;;;;;;;;1.00;0.00;;;;;;;;5029405;28;8795;-71
2023/10/20 22:20:16;;;;;;;;;0.75;0.75;;;;;;;;5029318;28;8827;-71
2023/10/20 22:22:42;;;;;;;;;1.00;0.00;;;;;;;;5030546;28;8807;-74
2023/10/20 22:25:08;;;;;;;;;0.50;0.00;;;;;;;;5030691;28;8784;-71
2023/10/20 22:27:33;;;;;;;;;0.00;0.00;;;;;;;;5030785;28;8889;-72
2023/10/20 22:29:58;;;;;;;;;1.25;0.00;;;;;;;;5030659;28;10489;-72
2023/10/20 22:32:23;;;;;;;;;1.00;0.00;;;;;;;;5029192;28;8820;-71
2023/10/20 22:34:49;;;;;;;;;0.25;0.00;;;;;;;;5030572;28;8828;-72
2023/10/20 22:37:14;;;;;;;;;0.00;0.00;;;;;;;;5030369;28;8784;-71
